createdAt,value
2022-09-02T00:01:12.136Z,98205.72
2022-09-02T00:03:38.661Z,98195.47
2022-09-02T00:06:05.350Z,98193.06
2022-09-02T00:08:31.978Z,98194.09
2022-09-02T00:11:06.247Z,98199.84
2022-09-02T00:13:36.090Z,98189.16
2022-09-02T00:16:04.040Z,98198.63
2022-09-02T00:18:30.938Z,98199.44
2022-09-02T00:20:57.436Z,98201.78
2022-09-02T00:23:23.930Z,98197.16
2022-09-02T00:25:54.014Z,98190.72
2022-09-02T00:28:20.793Z,98187.97
2022-09-02T00:30:48.621Z,98191.72
2022-09-02T00:33:16.163Z,98183.34
2022-09-02T00:35:43.990Z,98156.13
2022-09-02T00:38:11.200Z,98188.66
2022-09-02T00:40:38.863Z,98192.78
2022-09-02T00:43:08.337Z,98191.94
2022-09-02T00:45:36.494Z,98182.19
2022-09-02T00:48:03.974Z,98181.47
2022-09-02T00:50:35.113Z,98178.38
2022-09-02T00:53:08.299Z,98178.50
2022-09-02T00:55:40.482Z,98184.31
2022-09-02T00:58:14.949Z,98186.22
2022-09-02T01:00:44.789Z,98188.09
2022-09-02T01:03:15.971Z,98182.84
2022-09-02T01:05:46.078Z,98177.00
2022-09-02T01:08:15.776Z,98187.31
2022-09-02T01:10:43.168Z,98176.09
2022-09-02T01:13:15.910Z,98183.81
2022-09-02T01:15:49.314Z,98190.06
2022-09-02T01:18:25.633Z,98186.50
2022-09-02T01:20:52.222Z,98186.56
2022-09-02T01:23:19.424Z,98168.31
2022-09-02T01:25:47.097Z,98174.47
2022-09-02T01:28:16.162Z,98181.19
2022-09-02T01:30:49.910Z,98170.66
2022-09-02T01:33:18.667Z,98159.00
2022-09-02T01:35:45.381Z,98179.34
2022-09-02T01:38:12.600Z,98180.50
2022-09-02T01:40:40.196Z,98177.75
2022-09-02T01:43:11.138Z,98182.50
2022-09-02T01:45:40.330Z,98180.06
2022-09-02T01:48:08.968Z,98172.31
2022-09-02T01:50:46.791Z,98182.19
2022-09-02T01:53:14.670Z,98178.84
2022-09-02T01:55:41.711Z,98176.91
2022-09-02T01:58:08.748Z,98178.41
2022-09-02T02:05:34.307Z,98180.13
2022-09-02T02:08:03.199Z,98181.91
2022-09-02T02:10:30.977Z,98174.69
2022-09-02T02:13:00.961Z,98177.25
2022-09-02T02:17:56.634Z,98182.03
2022-09-02T02:20:23.640Z,98184.38
2022-09-02T02:22:50.190Z,98165.94
2022-09-02T02:25:18.732Z,98171.63
2022-09-02T02:27:49.926Z,98166.53
2022-09-02T02:30:17.580Z,98174.97
2022-09-02T02:32:47.081Z,98169.31
2022-09-02T02:35:18.926Z,98148.75
2022-09-02T02:37:49.080Z,98176.03
2022-09-02T02:40:19.049Z,98179.13
2022-09-02T02:42:47.587Z,98173.47
2022-09-02T02:45:15.628Z,98170.19
2022-09-02T02:47:46.027Z,98163.47
2022-09-02T02:50:15.786Z,98164.94
2022-09-02T02:52:42.450Z,98160.56
2022-09-02T02:55:10.657Z,98168.78
2022-09-02T02:57:39.157Z,98160.56
2022-09-02T03:00:19.568Z,98127.81
2022-09-02T03:02:48.089Z,98164.59
2022-09-02T03:05:16.118Z,98164.06
2022-09-02T03:07:43.069Z,98163.66
2022-09-02T03:10:11.182Z,98152.69
2022-09-02T03:12:40.669Z,98146.22
2022-09-02T03:15:09.055Z,98160.16
2022-09-02T03:17:35.756Z,98159.34
2022-09-02T03:20:03.230Z,98157.47
2022-09-02T03:22:33.285Z,98166.16
2022-09-02T03:25:00.121Z,98162.69
2022-09-02T03:27:26.664Z,98164.69
2022-09-02T03:29:56.713Z,98149.81
2022-09-02T03:32:23.232Z,98155.75
2022-09-02T03:34:54.402Z,98157.19
2022-09-02T03:37:21.026Z,98166.22
2022-09-02T03:39:47.584Z,98157.72
2022-09-02T03:42:19.360Z,98159.13
2022-09-02T03:44:47.588Z,98150.63
2022-09-02T03:47:15.140Z,98149.16
2022-09-02T03:49:41.643Z,98152.75
2022-09-02T03:52:11.024Z,98149.34
2022-09-02T03:54:38.445Z,98150.53
2022-09-02T03:57:05.460Z,98152.97
2022-09-02T03:59:33.030Z,98153.69
2022-09-02T04:02:02.753Z,98137.53
2022-09-02T04:04:30.085Z,98147.66
2022-09-02T04:06:57.370Z,98152.94
2022-09-02T04:09:24.040Z,98150.13
2022-09-02T04:11:50.569Z,98151.44
2022-09-02T04:14:17.198Z,98155.00
2022-09-02T04:16:43.643Z,98136.88
2022-09-02T04:19:10.306Z,98155.94
2022-09-02T04:21:40.881Z,98149.09
2022-09-02T04:24:09.919Z,98152.59
2022-09-02T04:26:44.802Z,98153.41
2022-09-02T04:29:14.400Z,98159.34
2022-09-02T04:31:42.318Z,98159.13
2022-09-02T04:34:09.722Z,98149.94
2022-09-02T04:36:36.722Z,98155.63
2022-09-02T04:39:09.337Z,98159.13
2022-09-02T04:41:37.590Z,98147.97
2022-09-02T04:44:07.569Z,98146.44
2022-09-02T04:46:38.041Z,98144.63
2022-09-02T04:49:08.655Z,98142.50
2022-09-02T04:51:37.276Z,98136.44
2022-09-02T04:54:05.302Z,98145.25
2022-09-02T04:56:32.426Z,98148.84
2022-09-02T04:59:01.315Z,98160.53
2022-09-02T05:01:32.492Z,98144.13
2022-09-02T05:04:09.430Z,98150.38
2022-09-02T05:06:44.096Z,98123.31
2022-09-02T05:09:15.427Z,98158.09
2022-09-02T05:11:41.932Z,98139.97
2022-09-02T05:14:08.610Z,98153.78
2022-09-02T05:16:40.499Z,98154.94
2022-09-02T05:19:13.663Z,98126.28
2022-09-02T05:21:47.012Z,98128.09
2022-09-02T05:24:26.443Z,98155.53
2022-09-02T05:26:54.807Z,98152.84
2022-09-02T05:29:22.269Z,98157.25
2022-09-02T05:31:49.908Z,98156.91
2022-09-02T05:34:17.428Z,98164.16
2022-09-02T05:36:44.146Z,98160.53
2022-09-02T05:39:10.811Z,98151.84
2022-09-02T05:41:38.531Z,98153.16
2022-09-02T05:44:07.294Z,98151.84
2022-09-02T05:46:36.013Z,98154.16
2022-09-02T05:49:08.812Z,98144.41
2022-09-02T05:51:44.916Z,98154.44
2022-09-02T05:54:15.936Z,98150.50
2022-09-02T05:56:45.232Z,98137.19
2022-09-02T05:59:13.902Z,98152.66
2022-09-02T06:01:40.804Z,98139.94
2022-09-02T06:04:07.528Z,98146.31
2022-09-02T06:06:38.422Z,98134.53
2022-09-02T06:09:09.346Z,98142.88
2022-09-02T06:11:45.276Z,98133.72
2022-09-02T06:14:20.695Z,98140.09
2022-09-02T06:16:50.318Z,98144.88
2022-09-02T06:19:25.805Z,98146.22
2022-09-02T06:21:54.497Z,98112.72
2022-09-02T06:24:24.357Z,98136.00
2022-09-02T06:26:54.539Z,98131.06
2022-09-02T06:29:26.051Z,98137.47
2022-09-02T06:31:53.865Z,98119.28
2022-09-02T06:34:23.883Z,98123.97
2022-09-02T06:36:50.728Z,98114.91
2022-09-02T06:39:21.848Z,98124.31
2022-09-02T06:41:49.858Z,98119.19
2022-09-02T06:44:21.552Z,98111.88
2022-09-02T06:46:55.037Z,98125.19
2022-09-02T06:49:22.987Z,98119.69
2022-09-02T06:51:51.524Z,98112.47
2022-09-02T06:54:21.564Z,98123.38
2022-09-02T06:56:52.935Z,98116.88
2022-09-02T06:59:23.452Z,98114.22
2022-09-02T07:01:56.369Z,98116.84
2022-09-02T07:04:42.208Z,98117.75
2022-09-02T07:07:12.322Z,98121.19
2022-09-02T07:09:51.913Z,98123.25
2022-09-02T07:12:19.607Z,98114.78
2022-09-02T07:14:55.760Z,98117.38
2022-09-02T07:17:27.941Z,98112.56
2022-09-02T07:20:00.603Z,98122.44
2022-09-02T07:22:31.602Z,98105.81
2022-09-02T07:25:00.636Z,98120.16
2022-09-02T07:27:27.346Z,98116.34
2022-09-02T07:29:56.295Z,98114.63
2022-09-02T07:32:23.434Z,98128.31
2022-09-02T07:34:50.036Z,98118.03
2022-09-02T07:37:17.169Z,98113.59
2022-09-02T07:39:45.169Z,98122.41
2022-09-02T07:42:14.522Z,98106.63
2022-09-02T07:47:09.196Z,98112.38
2022-09-02T07:52:25.694Z,98116.16
2022-09-02T07:54:54.360Z,98116.69
2022-09-02T07:57:21.080Z,98118.19
2022-09-02T07:59:48.373Z,98110.75
2022-09-02T08:02:16.880Z,98105.19
2022-09-02T08:04:44.558Z,98099.28
2022-09-02T08:07:11.820Z,98112.53
2022-09-02T08:09:38.564Z,98104.47
2022-09-02T08:12:05.219Z,98106.91
2022-09-02T08:14:31.701Z,98110.25
2022-09-02T08:16:58.427Z,98112.03
2022-09-02T08:19:27.288Z,98089.78
2022-09-02T08:21:53.811Z,98111.59
2022-09-02T08:24:20.230Z,98107.94
2022-09-02T08:26:47.350Z,98116.13
2022-09-02T08:29:13.762Z,98110.09
2022-09-02T08:31:40.257Z,98118.94
2022-09-02T08:34:06.852Z,98116.78
2022-09-02T08:36:33.306Z,98109.53
2022-09-02T08:39:03.734Z,98096.22
2022-09-02T08:41:51.448Z,98112.13
2022-09-02T08:44:22.642Z,98104.28
2022-09-02T08:46:53.815Z,98096.66
2022-09-02T08:49:35.201Z,98102.66
2022-09-02T08:52:04.685Z,98107.47
2022-09-02T08:54:44.448Z,98114.31
2022-09-02T08:57:11.990Z,98106.22
2022-09-02T09:02:21.696Z,98101.66
2022-09-02T09:05:12.042Z,98096.03
2022-09-02T09:07:59.742Z,98109.38
2022-09-02T09:10:56.903Z,98105.41
2022-09-02T09:13:56.186Z,98098.72
2022-09-02T09:16:35.027Z,98100.00
2022-09-02T09:19:16.418Z,98105.16
2022-09-02T09:21:44.352Z,98090.81
2022-09-02T09:24:28.979Z,98097.22
2022-09-02T09:26:55.984Z,98049.81
2022-09-02T09:29:22.582Z,98101.63
2022-09-02T09:31:57.767Z,98105.59
2022-09-02T09:34:24.371Z,98098.06
2022-09-02T09:36:53.811Z,98091.97
2022-09-02T09:39:29.975Z,98089.34
2022-09-02T09:42:11.636Z,98086.63
2022-09-02T09:44:48.042Z,98086.75
2022-09-02T09:47:20.641Z,98072.31
2022-09-02T09:50:14.519Z,98081.81
2022-09-02T09:52:40.974Z,98083.50
2022-09-02T09:55:24.586Z,98081.28
2022-09-02T09:57:53.502Z,98082.53
2022-09-02T10:00:32.304Z,98066.03
2022-09-02T10:03:05.235Z,98077.19
2022-09-02T10:05:37.134Z,98062.97
2022-09-02T10:08:17.613Z,98064.81
2022-09-02T10:11:02.726Z,98077.50
2022-09-02T10:13:35.467Z,98071.75
2022-09-02T10:16:25.505Z,98067.72
2022-09-02T10:19:22.265Z,98069.22
2022-09-02T10:22:09.785Z,98064.50
2022-09-02T10:25:20.477Z,98057.34
2022-09-02T10:27:58.921Z,98051.94
2022-09-02T10:30:26.925Z,98060.91
2022-09-02T10:33:13.097Z,98059.28
2022-09-02T10:35:45.493Z,98054.81
2022-09-02T10:38:34.710Z,98049.72
2022-09-02T10:41:32.500Z,98040.19
2022-09-02T10:44:01.817Z,98046.31
2022-09-02T10:46:39.020Z,98035.72
2022-09-02T10:49:19.666Z,98032.91
2022-09-02T10:52:28.112Z,98017.75
2022-09-02T10:55:03.422Z,98024.75
2022-09-02T10:57:45.435Z,98020.72
2022-09-02T11:00:16.961Z,98022.31
2022-09-02T11:03:12.456Z,97998.00
2022-09-02T11:05:45.770Z,98005.66
2022-09-02T11:08:41.445Z,97950.00
2022-09-02T11:11:21.169Z,97992.13
2022-09-02T11:14:02.985Z,97989.06
2022-09-02T11:16:41.820Z,97982.91
2022-09-02T11:19:39.486Z,97989.72
2022-09-02T11:22:11.984Z,97984.84
2022-09-02T11:24:52.302Z,97984.41
2022-09-02T11:27:47.872Z,97989.41
2022-09-02T11:30:21.400Z,97986.88
2022-09-02T11:33:12.760Z,97985.91
2022-09-02T11:35:39.638Z,97994.94
2022-09-02T11:38:15.080Z,97982.84
2022-09-02T11:44:29.479Z,97966.59
2022-09-02T11:47:25.826Z,97971.28
2022-09-02T11:50:15.114Z,97985.75
2022-09-02T11:52:59.711Z,97968.09
2022-09-02T11:55:34.047Z,97956.53
2022-09-02T11:58:01.350Z,97954.03
2022-09-02T12:00:31.648Z,97955.59
2022-09-02T12:03:28.542Z,97953.88
2022-09-02T12:06:13.543Z,97970.09
2022-09-02T12:08:40.645Z,97963.09
2022-09-02T12:11:07.808Z,97950.84
2022-09-02T12:13:43.760Z,97964.41
2022-09-02T12:16:16.427Z,97955.00
2022-09-02T12:18:45.102Z,97954.31
2022-09-02T12:21:16.327Z,97945.41
2022-09-02T12:23:49.530Z,97950.41
2022-09-02T12:26:17.854Z,97949.31
2022-09-02T12:28:48.880Z,97948.94
2022-09-02T12:31:36.559Z,97938.88
2022-09-02T12:34:24.851Z,97942.66
2022-09-02T12:36:55.608Z,97935.50
2022-09-02T12:39:25.439Z,97938.19
2022-09-02T12:42:06.984Z,97931.47
2022-09-02T12:44:44.386Z,97928.72
2022-09-02T12:47:33.664Z,97924.59
2022-09-02T12:50:32.412Z,97921.91
2022-09-02T12:53:32.344Z,97922.75
2022-09-02T12:56:21.861Z,97917.88
2022-09-02T12:58:51.931Z,97897.69
2022-09-02T13:01:37.364Z,97894.22
2022-09-02T13:04:16.379Z,97900.25
2022-09-02T13:06:49.476Z,97891.81
2022-09-02T13:09:39.094Z,97887.25
2022-09-02T13:12:31.565Z,97877.06
2022-09-02T13:15:23.395Z,97874.16
2022-09-02T13:18:24.318Z,97881.75
2022-09-02T13:21:09.386Z,97883.19
2022-09-02T13:24:12.850Z,97884.34
2022-09-02T13:27:01.065Z,97875.88
2022-09-02T13:30:07.331Z,97870.78
2022-09-02T13:32:34.943Z,97818.00
2022-09-02T13:35:05.512Z,97864.47
2022-09-02T13:37:40.708Z,97870.31
2022-09-02T13:40:27.144Z,97856.75
2022-09-02T13:43:01.570Z,97856.84
2022-09-02T13:45:37.207Z,97857.13
2022-09-02T13:48:10.242Z,97853.25
2022-09-02T13:50:42.125Z,97845.59
2022-09-02T13:56:02.477Z,97843.94
2022-09-02T13:58:28.813Z,97842.16
2022-09-02T14:01:01.673Z,97850.38
2022-09-02T14:03:33.018Z,97831.97
2022-09-02T14:06:01.285Z,97844.47
2022-09-02T14:08:30.566Z,97831.41
2022-09-02T14:10:58.344Z,97835.97
2022-09-02T14:13:25.243Z,97836.41
2022-09-02T14:15:51.749Z,97819.31
2022-09-02T14:18:21.492Z,97826.53
2022-09-02T14:21:09.590Z,97814.38
2022-09-02T14:23:46.301Z,97804.47
2022-09-02T14:26:24.076Z,97805.72
2022-09-02T14:28:51.869Z,97800.84
2022-09-02T14:31:30.577Z,97797.88
2022-09-02T14:33:57.896Z,97788.25
2022-09-02T14:36:24.319Z,97789.72
2022-09-02T14:38:57.216Z,97786.53
2022-09-02T14:41:28.175Z,97789.41
2022-09-02T14:44:00.249Z,97787.97
2022-09-02T14:46:30.303Z,97787.31
2022-09-02T14:49:04.411Z,97787.53
2022-09-02T14:51:36.473Z,97787.63
2022-09-02T14:54:03.996Z,97786.34
2022-09-02T14:56:48.501Z,97775.84
2022-09-02T14:59:15.002Z,97776.41
2022-09-02T15:01:43.961Z,97781.22
2022-09-02T15:04:10.686Z,97776.56
2022-09-02T15:06:42.101Z,97776.97
2022-09-02T15:09:09.194Z,97772.34
2022-09-02T15:11:38.549Z,97767.84
2022-09-02T15:14:05.750Z,97699.25
2022-09-02T15:16:33.034Z,97768.72
2022-09-02T15:19:00.050Z,97770.28
2022-09-02T15:21:26.592Z,97765.00
2022-09-02T15:23:52.994Z,97768.88
2022-09-02T15:26:19.444Z,97746.97
2022-09-02T15:28:45.899Z,97771.47
2022-09-02T15:31:12.828Z,97771.50
2022-09-02T15:33:41.310Z,97768.59
2022-09-02T15:36:13.301Z,97777.28
2022-09-02T15:38:43.101Z,97778.81
2022-09-02T15:41:18.798Z,97772.78
2022-09-02T15:43:47.478Z,97774.06
2022-09-02T15:46:17.646Z,97774.00
2022-09-02T15:48:44.370Z,97779.28
2022-09-02T15:51:12.903Z,97769.75
2022-09-02T15:53:39.755Z,97778.22
2022-09-02T15:56:15.820Z,97776.34
2022-09-02T15:58:42.310Z,97768.78
2022-09-02T16:01:09.138Z,97779.16
2022-09-02T16:03:36.527Z,97780.28
2022-09-02T16:06:05.516Z,97775.59
2022-09-02T16:08:33.365Z,97777.50
2022-09-02T16:11:04.639Z,97782.88
2022-09-02T16:13:31.344Z,97766.03
2022-09-02T16:16:05.759Z,97763.25
2022-09-02T16:18:33.947Z,97765.97
2022-09-02T16:21:00.560Z,97761.25
2022-09-02T16:23:27.595Z,97758.09
2022-09-02T16:26:27.889Z,97759.00
2022-09-02T16:29:03.993Z,97753.28
2022-09-02T16:31:32.558Z,97754.88
2022-09-02T16:34:10.908Z,97746.50
2022-09-02T16:36:43.301Z,97750.19
2022-09-02T16:39:12.010Z,97742.66
2022-09-02T16:41:49.825Z,97744.06
2022-09-02T16:44:18.454Z,97739.41
2022-09-02T16:46:46.550Z,97751.91
2022-09-02T16:49:18.593Z,97754.13
2022-09-02T16:51:46.226Z,97747.13
2022-09-02T16:54:17.901Z,97739.91
2022-09-02T16:56:48.614Z,97742.34
2022-09-02T16:59:15.140Z,97752.25
2022-09-02T17:01:41.590Z,97747.13
2022-09-02T17:04:08.999Z,97751.69
2022-09-02T17:06:41.277Z,97758.00
2022-09-02T17:09:08.951Z,97757.63
2022-09-02T17:11:39.569Z,97755.69
2022-09-02T17:14:05.973Z,97751.72
2022-09-02T17:16:35.723Z,97751.91
2022-09-02T17:19:02.641Z,97747.44
2022-09-02T17:21:42.338Z,97750.78
2022-09-02T17:24:11.574Z,97745.81
2022-09-02T17:26:40.002Z,97747.53
2022-09-02T17:29:17.226Z,97741.19
2022-09-02T17:31:52.732Z,97741.25
2022-09-02T17:34:19.283Z,97742.88
2022-09-02T17:36:45.712Z,97740.44
2022-09-02T17:39:14.672Z,97728.41
2022-09-02T17:41:59.662Z,97726.84
2022-09-02T17:44:35.296Z,97722.66
2022-09-02T17:47:14.120Z,97726.69
2022-09-02T17:49:46.557Z,97729.94
2022-09-02T17:52:16.438Z,97726.69
2022-09-02T17:54:43.280Z,97731.34
2022-09-02T17:57:19.079Z,97733.75
2022-09-02T18:00:12.406Z,97733.75
2022-09-02T18:02:42.176Z,97731.19
2022-09-02T18:05:16.216Z,97726.41
2022-09-02T18:08:01.153Z,97733.25
2022-09-02T18:10:32.772Z,97733.50
2022-09-02T18:13:04.117Z,97735.31
2022-09-02T18:15:43.271Z,97733.13
2022-09-02T18:18:11.856Z,97724.19
2022-09-02T18:20:43.905Z,97737.75
2022-09-02T18:23:42.932Z,97734.25
2022-09-02T18:26:35.657Z,97726.63
2022-09-02T18:29:25.397Z,97727.03
2022-09-02T18:32:28.829Z,97732.66
2022-09-02T18:35:07.682Z,97732.75
2022-09-02T18:37:49.286Z,97732.56
2022-09-02T18:40:21.717Z,97733.75
2022-09-02T18:43:12.913Z,97732.19
2022-09-02T18:45:54.644Z,97734.19
2022-09-02T18:48:33.000Z,97731.53
2022-09-02T18:51:17.826Z,97733.97
2022-09-02T18:53:54.086Z,97727.16
2022-09-02T18:56:28.759Z,97732.44
2022-09-02T18:59:02.121Z,97736.31
2022-09-02T19:01:30.782Z,97743.13
2022-09-02T19:04:00.370Z,97751.47
2022-09-02T19:06:34.337Z,97744.81
2022-09-02T19:09:12.442Z,97753.16
2022-09-02T19:11:39.706Z,97755.94
2022-09-02T19:14:29.429Z,97754.47
2022-09-02T19:16:58.275Z,97744.03
2022-09-02T19:19:27.251Z,97757.00
2022-09-02T19:21:58.101Z,97756.31
2022-09-02T19:24:28.411Z,97760.81
2022-09-02T19:27:08.230Z,97761.03
2022-09-02T19:29:38.988Z,97748.91
2022-09-02T19:32:06.345Z,97767.81
2022-09-02T19:34:37.872Z,97764.91
2022-09-02T19:37:05.290Z,97761.13
2022-09-02T19:39:35.095Z,97760.28
2022-09-02T19:42:01.629Z,97764.22
2022-09-02T19:44:28.646Z,97756.41
2022-09-02T19:47:42.236Z,97759.56
2022-09-02T19:49:42.558Z,97757.06
2022-09-02T19:52:11.197Z,97759.97
2022-09-02T19:54:38.808Z,97755.38
2022-09-02T19:57:05.723Z,97757.66
2022-09-02T19:59:33.026Z,97755.31
2022-09-02T20:01:59.672Z,97760.25
2022-09-02T20:04:27.858Z,97758.28
2022-09-02T20:06:57.931Z,97745.13
2022-09-02T20:09:25.632Z,97752.31
2022-09-02T20:11:55.789Z,97742.22
2022-09-02T20:14:22.370Z,97750.47
2022-09-02T20:16:54.180Z,97753.19
2022-09-02T20:19:21.695Z,97748.78
2022-09-02T20:21:49.312Z,97750.41
2022-09-02T20:24:27.045Z,97756.03
2022-09-02T20:27:20.644Z,97746.94
2022-09-02T20:29:58.874Z,97744.56
2022-09-02T20:32:53.390Z,97747.81
2022-09-02T20:35:24.032Z,97746.16
2022-09-02T20:38:12.324Z,97747.78
2022-09-02T20:41:25.981Z,97740.72
2022-09-02T20:44:07.656Z,97749.81
2022-09-02T20:46:44.271Z,97748.53
2022-09-02T20:49:40.120Z,97739.63
2022-09-02T20:52:21.577Z,97742.50
2022-09-02T20:54:55.523Z,97747.00
2022-09-02T20:57:51.750Z,97746.28
2022-09-02T21:00:22.599Z,97746.81
2022-09-02T21:03:05.360Z,97740.44
2022-09-02T21:05:38.563Z,97741.25
2022-09-02T21:08:10.076Z,97740.84
2022-09-02T21:10:42.012Z,97739.47
2022-09-02T21:13:34.537Z,97738.16
2022-09-02T21:16:08.914Z,97739.22
2022-09-02T21:18:47.435Z,97716.94
2022-09-02T21:21:23.361Z,97737.84
2022-09-02T21:23:56.250Z,97735.72
2022-09-02T21:26:48.310Z,97731.16
2022-09-02T21:29:37.121Z,97727.19
2022-09-02T21:32:16.303Z,97719.69
2022-09-02T21:34:52.384Z,97731.59
2022-09-02T21:37:21.976Z,97717.53
2022-09-02T21:39:58.287Z,97723.69
2022-09-02T21:42:40.949Z,97717.47
2022-09-02T21:45:11.749Z,97707.22
2022-09-02T21:47:59.153Z,97714.19
2022-09-02T21:50:46.267Z,97702.34
2022-09-02T21:53:25.452Z,97717.44
2022-09-02T21:56:16.670Z,97719.56
2022-09-02T21:59:21.047Z,97715.78
2022-09-02T22:02:03.764Z,97709.28
2022-09-02T22:04:53.546Z,97710.84
2022-09-02T22:07:28.395Z,97708.72
2022-09-02T22:10:03.761Z,97708.75
2022-09-02T22:12:39.770Z,97711.97
2022-09-02T22:15:24.048Z,97705.53
2022-09-02T22:17:56.137Z,97704.16
2022-09-02T22:20:34.275Z,97698.25
2022-09-02T22:23:07.050Z,97702.78
2022-09-02T22:25:35.994Z,97708.16
2022-09-02T22:28:09.783Z,97697.31
2022-09-02T22:30:42.053Z,97684.44
2022-09-02T22:33:15.978Z,97706.22
2022-09-02T22:36:00.655Z,97708.34
2022-09-02T22:38:35.334Z,97708.47
2022-09-02T22:41:11.319Z,97704.97
2022-09-02T22:43:48.992Z,97712.75
2022-09-02T22:46:46.316Z,97708.91
2022-09-02T22:49:48.998Z,97712.13
2022-09-02T22:52:39.941Z,97701.69
2022-09-02T22:55:12.701Z,97694.16
2022-09-02T22:58:04.991Z,97694.66
2022-09-02T23:00:39.395Z,97697.09
2022-09-02T23:03:16.927Z,97694.34
2022-09-02T23:06:04.645Z,97701.25
2022-09-02T23:08:36.881Z,97681.84
2022-09-02T23:11:11.772Z,97712.28
2022-09-02T23:13:47.429Z,97649.41
2022-09-02T23:16:43.038Z,97710.16
2022-09-02T23:19:25.925Z,97705.63
2022-09-02T23:22:17.952Z,97708.34
2022-09-02T23:25:03.194Z,97703.94
2022-09-02T23:28:15.329Z,97688.25
2022-09-02T23:30:52.343Z,97697.28
2022-09-02T23:33:43.758Z,97693.97
2022-09-02T23:36:19.949Z,97680.69
2022-09-02T23:39:11.952Z,97689.22
2022-09-02T23:41:42.769Z,97694.34
2022-09-02T23:44:12.488Z,97697.38
2022-09-02T23:47:05.165Z,97694.75
2022-09-02T23:50:01.404Z,97702.06
2022-09-02T23:52:33.958Z,97696.56
2022-09-02T23:55:23.867Z,97701.72
2022-09-02T23:58:13.104Z,97696.00
